Time;durP1;ratioP1;P1;durP2;ratioP2;P2;SDS_P1;SDS_P2;PMS_P1;PMS_P2;Temp;Humidity;BMP_temperature;BMP_pressure;BME280_temperature;BME280_humidity;BME280_pressure;Samples;Min_cycle;Max_cycle;Signal;HPM_P1;HPM_P2
2022/12/29 00:02:11;;;;;;;15.13;6.78;;;;;;;-0.19;100.00;99300.81;4438470;32;20458;-70
2022/12/29 00:04:39;;;;;;;22.42;8.02;;;;;;;-0.14;100.00;99300.66;4438499;32;20162;-70
2022/12/29 00:07:06;;;;;;;16.95;7.72;;;;;;;-0.11;100.00;99306.50;4438466;32;20147;-70
2022/12/29 00:09:34;;;;;;;18.75;8.07;;;;;;;-0.06;100.00;99299.47;4430785;32;20439;-70
2022/12/29 00:12:03;;;;;;;20.60;7.45;;;;;;;-0.03;100.00;99299.34;4423226;32;20180;-70
2022/12/29 00:17:16;;;;;;;15.57;6.22;;;;;;;-0.15;100.00;99289.50;4422984;32;20098;-70
2022/12/29 00:36:25;;;;;;;15.30;7.70;;;;;;;-0.22;100.00;99288.06;4438264;32;20086;-70
2022/12/29 00:44:31;;;;;;;21.40;7.90;;;;;;;-0.09;100.00;99275.53;4437952;32;20098;-69
2022/12/29 00:47:02;;;;;;;19.73;7.43;;;;;;;-0.07;100.00;99277.19;4438596;32;20788;-70
2022/12/29 00:49:31;;;;;;;18.58;8.68;;;;;;;-0.07;100.00;99274.59;4438399;32;20153;-70
2022/12/29 00:52:04;;;;;;;18.00;8.18;;;;;;;-0.12;100.00;99281.69;4438414;32;20156;-70
2022/12/29 00:54:33;;;;;;;24.55;8.32;;;;;;;-0.20;100.00;99287.09;4437116;32;20142;-70
2022/12/29 00:57:02;;;;;;;16.08;7.95;;;;;;;-0.26;100.00;99292.50;4438324;32;20086;-70
2022/12/29 00:59:30;;;;;;;15.95;8.10;;;;;;;-0.26;100.00;99291.63;4437984;32;20101;-69
2022/12/29 01:01:57;;;;;;;18.30;7.68;;;;;;;-0.29;100.00;99290.00;4438078;32;20203;-70
2022/12/29 01:04:25;;;;;;;22.65;7.78;;;;;;;-0.22;100.00;99288.06;4437892;32;20097;-69
2022/12/29 01:06:52;;;;;;;14.25;6.25;;;;;;;-0.18;100.00;99284.47;4438304;32;20089;-69
2022/12/29 01:12:08;;;;;;;19.67;7.57;;;;;;;-0.09;100.00;99286.72;4422617;32;20576;-70
2022/12/29 01:14:36;;;;;;;21.35;7.43;;;;;;;-0.11;100.00;99285.91;4422427;32;20163;-69
2022/12/29 01:17:04;;;;;;;19.95;8.13;;;;;;;-0.17;100.00;99286.13;4422466;32;20112;-69
2022/12/29 01:19:32;;;;;;;16.58;7.47;;;;;;;-0.24;100.00;99284.72;4422573;32;20125;-69
2022/12/29 01:22:00;;;;;;;18.85;7.03;;;;;;;-0.20;100.00;99279.38;4432867;32;20586;-70
2022/12/29 01:24:27;;;;;;;19.65;8.02;;;;;;;-0.26;100.00;99277.03;4437628;32;20455;-69
2022/12/29 01:26:55;;;;;;;16.87;7.93;;;;;;;-0.32;100.00;99276.41;4437891;32;20102;-69
2022/12/29 01:29:22;;;;;;;18.33;8.13;;;;;;;-0.32;100.00;99279.81;4437802;32;20157;-69
2022/12/29 01:31:51;;;;;;;21.25;7.50;;;;;;;-0.30;100.00;99280.62;4437718;32;20131;-69
2022/12/29 01:34:19;;;;;;;18.90;7.97;;;;;;;-0.34;100.00;99283.34;4437559;32;20115;-69
2022/12/29 01:36:46;;;;;;;17.98;7.75;;;;;;;-0.37;100.00;99281.72;4437528;32;20110;-69
2022/12/29 01:39:13;;;;;;;20.85;8.15;;;;;;;-0.40;100.00;99292.13;4437784;32;20090;-70
2022/12/29 01:41:41;;;;;;;19.62;7.85;;;;;;;-0.45;100.00;99291.47;4437605;32;20162;-69
2022/12/29 01:44:46;;;;;;;19.37;8.27;;;;;;;-0.52;100.00;99290.84;4437278;32;20169;-69
2022/12/29 01:47:39;;;;;;;;;;;;;;;-0.51;100.00;99281.41;4437703;32;20089;-70
2022/12/29 01:50:19;;;;;;;23.60;9.65;;;;;;;-0.54;100.00;99284.91;4436056;32;20291;-69
2022/12/29 01:53:01;;;;;;;17.55;8.40;;;;;;;-0.55;100.00;99278.91;4437227;32;20116;-69
2022/12/29 01:55:31;;;;;;;22.80;9.07;;;;;;;-0.58;100.00;99275.59;4423663;32;20116;-69
2022/12/29 01:58:01;;;;;;;17.45;8.55;;;;;;;-0.64;100.00;99270.69;4423501;32;20124;-70
2022/12/29 02:00:29;;;;;;;22.73;9.00;;;;;;;-0.69;100.00;99273.41;4423600;32;20094;-70
2022/12/29 02:02:57;;;;;;;20.42;8.57;;;;;;;-0.63;100.00;99272.38;4437421;32;20089;-69
2022/12/29 02:05:33;;;;;;;16.87;7.72;;;;;;;-0.68;100.00;99269.09;4438068;32;20089;-69
2022/12/29 02:08:01;;;;;;;25.10;8.70;;;;;;;-0.72;100.00;99268.38;4425584;32;20119;-69
2022/12/29 02:10:30;;;;;;;18.35;7.87;;;;;;;-0.67;100.00;99263.91;4425679;32;20467;-69
2022/12/29 02:12:57;;;;;;;21.85;9.02;;;;;;;-0.79;100.00;99269.47;4410011;32;20169;-70
2022/12/29 02:15:40;;;;;;;15.55;6.93;;;;;;;-0.81;100.00;99259.25;4423822;32;20121;-69
2022/12/29 02:18:36;;;;;;;20.12;7.40;;;;;;;-0.73;100.00;99252.13;4423890;32;20127;-69
2022/12/29 02:21:25;;;;;;;16.87;7.57;;;;;;;-0.85;100.00;99251.69;4414292;32;20123;-69
2022/12/29 02:24:25;;;;;;;20.98;8.00;;;;;;;-0.89;100.00;99245.81;4439513;32;20608;-69
2022/12/29 02:27:13;;;;;;;17.40;7.65;;;;;;;-0.83;100.00;99240.47;4425674;32;20184;-70
2022/12/29 02:30:02;;;;;;;15.93;8.27;;;;;;;-0.78;100.00;99235.97;4439296;32;20142;-69
2022/12/29 02:32:42;;;;;;;17.42;7.57;;;;;;;-0.81;100.00;99230.13;4439473;32;20146;-69
2022/12/29 02:35:33;;;;;;;17.23;7.55;;;;;;;-0.73;100.00;99236.69;4439596;32;20179;-69
2022/12/29 02:38:04;;;;;;;19.90;8.95;;;;;;;-0.69;100.00;99234.81;4425787;32;20084;-69
2022/12/29 02:40:47;;;;;;;21.85;7.87;;;;;;;-0.81;100.00;99227.56;4439090;32;20090;-69
2022/12/29 02:43:44;;;;;;;19.30;8.57;;;;;;;-0.73;100.00;99225.53;4425495;32;20135;-69
2022/12/29 02:46:36;;;;;;;23.92;9.02;;;;;;;-0.72;100.00;99222.06;4439195;32;20762;-69
2022/12/29 02:49:11;;;;;;;18.67;8.48;;;;;;;-0.74;100.00;99216.16;4425240;32;20465;-69
2022/12/29 02:52:14;;;;;;;16.75;7.87;;;;;;;-0.77;100.00;99205.97;4439036;32;20549;-69
2022/12/29 02:54:41;;;;;;;21.98;8.57;;;;;;;-0.75;100.00;99211.91;4425128;32;20151;-69
2022/12/29 02:57:29;;;;;;;27.25;8.50;;;;;;;-0.81;100.00;99206.97;4439316;32;20439;-69
2022/12/29 03:00:09;;;;;;;17.95;8.05;;;;;;;-0.70;100.00;99209.97;4439323;32;20097;-69
2022/12/29 03:02:51;;;;;;;20.05;9.35;;;;;;;-0.70;100.00;99198.88;4439278;32;20093;-69
2022/12/29 03:05:38;;;;;;;27.45;9.63;;;;;;;-0.68;100.00;99203.06;4438886;32;20113;-69
2022/12/29 03:08:21;;;;;;;22.42;9.02;;;;;;;-0.81;100.00;99206.97;4439354;32;20135;-69
2022/12/29 03:12:07;;;;;;;22.02;8.93;;;;;;;-0.89;100.00;99209.81;4408554;32;20523;-69
2022/12/29 03:16:51;;;;;;;24.63;8.50;;;;;;;-1.01;100.00;99218.78;4407582;32;20173;-70
2022/12/29 03:19:27;;;;;;;16.55;7.95;;;;;;;-0.99;100.00;99204.12;4407466;32;20812;-69
2022/12/29 03:24:48;;;;;;;18.17;8.48;;;;;;;-1.08;100.00;99200.16;4427313;32;20168;-69
2022/12/29 03:27:29;;;;;;;21.20;8.32;;;;;;;-1.12;100.00;99187.47;4425438;32;20101;-69
2022/12/29 03:29:59;;;;;;;19.50;8.40;;;;;;;-1.13;100.00;99193.50;4425117;32;20176;-69
2022/12/29 03:32:41;;;;;;;20.40;9.00;;;;;;;-1.13;100.00;99203.78;4438996;32;20102;-69
2022/12/29 03:35:10;;;;;;;18.33;9.00;;;;;;;-1.18;100.00;99188.53;4424943;32;20565;-69
2022/12/29 03:37:41;;;;;;;16.05;8.13;;;;;;;-1.23;100.00;99200.69;4424783;32;20129;-69
2022/12/29 03:40:09;;;;;;;24.00;9.32;;;;;;;-1.21;100.00;99193.78;4424877;32;20093;-69
2022/12/29 03:42:37;;;;;;;26.65;9.15;;;;;;;-1.21;100.00;99187.78;4425156;32;20102;-69
2022/12/29 03:45:07;;;;;;;24.77;9.68;;;;;;;-1.21;100.00;99178.34;4438612;32;20234;-69
2022/12/29 03:47:34;;;;;;;23.50;9.88;;;;;;;-1.17;100.00;99179.06;4425130;32;20125;-69
2022/12/29 03:50:01;;;;;;;23.23;9.55;;;;;;;-1.14;100.00;99178.97;4439017;32;20105;-69
2022/12/29 03:52:30;;;;;;;22.73;9.40;;;;;;;-1.19;100.00;99181.69;4438507;32;20123;-69
2022/12/29 03:54:57;;;;;;;20.58;9.23;;;;;;;-1.14;100.00;99192.66;4438718;32;20115;-69
2022/12/29 03:57:24;;;;;;;26.37;10.82;;;;;;;-1.12;100.00;99190.03;4438741;32;20121;-69
2022/12/29 03:59:53;;;;;;;20.35;10.20;;;;;;;-1.15;100.00;99179.84;4438761;32;20594;-69
2022/12/29 04:02:20;;;;;;;22.02;10.07;;;;;;;-1.14;100.00;99189.25;4438806;32;20443;-69
2022/12/29 04:04:47;;;;;;;19.73;8.88;;;;;;;-1.12;100.00;99188.31;4438537;32;20089;-69
2022/12/29 04:07:15;;;;;;;18.17;9.43;;;;;;;-1.14;100.00;99194.41;4438752;32;20159;-69
2022/12/29 04:09:42;;;;;;;19.40;9.27;;;;;;;-1.14;100.00;99191.81;4429966;32;20522;-69
2022/12/29 04:12:10;;;;;;;17.85;9.63;;;;;;;-1.20;100.00;99190.28;4423245;32;20149;-69
2022/12/29 04:14:37;;;;;;;26.87;10.07;;;;;;;-1.18;100.00;99187.66;4423383;32;20126;-69
2022/12/29 04:17:04;;;;;;;20.98;10.00;;;;;;;-1.20;100.00;99187.72;4422810;32;20124;-69
2022/12/29 04:19:33;;;;;;;22.42;9.70;;;;;;;-1.19;100.00;99186.00;4423349;32;20097;-69
2022/12/29 04:22:00;;;;;;;21.65;9.30;;;;;;;-1.17;100.00;99189.34;4433118;32;20090;-69
2022/12/29 04:24:28;;;;;;;27.45;10.50;;;;;;;-1.19;100.00;99186.00;4438450;32;20646;-69
2022/12/29 04:26:55;;;;;;;26.67;9.95;;;;;;;-1.13;100.00;99183.22;4438455;32;20105;-69
2022/12/29 04:29:24;;;;;;;17.87;9.07;;;;;;;-1.11;100.00;99194.28;4437695;32;20530;-69
2022/12/29 04:31:52;;;;;;;19.15;9.77;;;;;;;-1.14;100.00;99189.25;4438715;32;20474;-69
2022/12/29 04:34:19;;;;;;;20.73;9.15;;;;;;;-1.12;100.00;99197.75;4438364;32;20123;-69
2022/12/29 04:36:46;;;;;;;21.23;9.95;;;;;;;-1.11;100.00;99186.56;4438438;32;20435;-69
2022/12/29 04:39:14;;;;;;;22.25;9.98;;;;;;;-1.03;100.00;99189.72;4438502;32;20123;-69
2022/12/29 04:41:41;;;;;;;19.87;9.90;;;;;;;-0.93;100.00;99185.91;4438507;32;20097;-69
2022/12/29 04:44:09;;;;;;;28.20;10.13;;;;;;;-0.95;100.00;99190.28;4438405;32;20165;-69
2022/12/29 04:46:38;;;;;;;21.12;9.77;;;;;;;-0.84;100.00;99181.38;4438483;32;20605;-69
2022/12/29 04:49:08;;;;;;;23.05;9.23;;;;;;;-0.75;100.00;99181.03;4438209;32;20394;-69
2022/12/29 04:51:37;;;;;;;18.42;8.95;;;;;;;-0.77;100.00;99182.81;4438278;32;20089;-69
2022/12/29 04:54:05;;;;;;;21.83;9.93;;;;;;;-0.81;100.00;99178.69;4438497;32;20263;-69
2022/12/29 04:56:32;;;;;;;25.33;9.95;;;;;;;-0.77;100.00;99182.81;4438336;32;20097;-69
2022/12/29 04:59:00;;;;;;;19.20;9.02;;;;;;;-0.78;100.00;99181.97;4438483;32;20110;-69
2022/12/29 05:01:27;;;;;;;21.30;8.55;;;;;;;-0.76;100.00;99172.47;4438264;32;20230;-69
2022/12/29 05:03:54;;;;;;;22.62;9.27;;;;;;;-0.62;100.00;99182.25;4438346;32;20089;-69
2022/12/29 05:06:23;;;;;;;19.23;8.82;;;;;;;-0.69;100.00;99174.81;4438105;32;20136;-69
2022/12/29 05:08:50;;;;;;;21.73;9.35;;;;;;;-0.63;100.00;99180.56;4420955;32;20101;-69
2022/12/29 05:11:17;;;;;;;20.85;9.30;;;;;;;-0.61;100.00;99162.50;4422925;32;20161;-69
2022/12/29 05:13:46;;;;;;;22.95;9.88;;;;;;;-0.64;100.00;99175.47;4422652;32;20451;-69
2022/12/29 05:16:13;;;;;;;20.27;10.02;;;;;;;-0.66;100.00;99179.84;4422576;32;20522;-69
2022/12/29 05:18:41;;;;;;;25.17;10.10;;;;;;;-0.66;100.00;99174.72;4422623;32;20458;-69
2022/12/29 05:21:08;;;;;;;18.00;8.88;;;;;;;-0.71;100.00;99177.47;4427235;32;20089;-69
2022/12/29 05:23:36;;;;;;;20.60;9.63;;;;;;;-0.67;100.00;99178.16;4437949;32;20159;-69
2022/12/29 05:26:04;;;;;;;18.55;9.27;;;;;;;-0.75;100.00;99186.16;4438187;32;20451;-69
2022/12/29 05:28:32;;;;;;;22.75;9.32;;;;;;;-0.76;100.00;99190.50;4437710;32;20163;-69
2022/12/29 05:31:00;;;;;;;23.52;10.75;;;;;;;-0.65;100.00;99187.53;4438149;32;20089;-69
2022/12/29 05:33:28;;;;;;;22.15;9.80;;;;;;;-0.78;100.00;99174.25;4437579;32;20094;-69
2022/12/29 05:35:56;;;;;;;26.52;8.82;;;;;;;-0.73;100.00;99168.94;4437843;32;20119;-69
2022/12/29 05:38:23;;;;;;;21.77;9.45;;;;;;;-0.75;100.00;99165.59;4437724;32;20093;-69
2022/12/29 05:40:51;;;;;;;23.27;9.63;;;;;;;-0.77;100.00;99172.53;4438876;32;20165;-69
2022/12/29 05:43:19;;;;;;;19.87;9.93;;;;;;;-0.81;100.00;99173.53;4439689;32;20124;-69
2022/12/29 05:45:49;;;;;;;23.83;10.85;;;;;;;-0.86;100.00;99172.84;4439610;32;20174;-69
2022/12/29 05:48:18;;;;;;;23.45;10.18;;;;;;;-0.86;100.00;99165.97;4439567;32;20112;-69
2022/12/29 05:50:49;;;;;;;24.48;10.38;;;;;;;-0.95;100.00;99163.75;4439756;32;20101;-70
2022/12/29 05:53:17;;;;;;;21.52;10.30;;;;;;;-0.94;100.00;99161.13;4439477;32;20078;-69
2022/12/29 05:55:47;;;;;;;20.27;10.73;;;;;;;-0.93;100.00;99165.34;4439805;32;20109;-69
2022/12/29 05:58:16;;;;;;;22.55;10.63;;;;;;;-0.92;100.00;99155.91;4439592;32;20085;-70
2022/12/29 06:00:44;;;;;;;29.65;10.52;;;;;;;-0.95;100.00;99156.88;4439498;32;20094;-69
2022/12/29 06:03:11;;;;;;;23.02;10.85;;;;;;;-0.91;100.00;99155.87;4439422;32;20400;-69
2022/12/29 06:05:39;;;;;;;21.67;10.43;;;;;;;-0.97;100.00;99153.50;4439431;32;20150;-69
2022/12/29 06:08:06;;;;;;;22.02;9.90;;;;;;;-0.98;100.00;99159.53;4439305;32;20112;-69
2022/12/29 06:10:33;;;;;;;29.02;10.38;;;;;;;-1.00;100.00;99148.47;4425499;32;20606;-69
2022/12/29 06:13:01;;;;;;;20.60;10.32;;;;;;;-0.90;100.00;99156.69;4424084;32;20090;-68
2022/12/29 06:15:30;;;;;;;22.95;10.55;;;;;;;-0.77;100.00;99157.09;4424276;32;20101;-69
2022/12/29 06:17:57;;;;;;;27.15;11.43;;;;;;;-0.88;100.00;99154.91;4423991;32;20093;-69
2022/12/29 06:20:24;;;;;;;30.52;12.70;;;;;;;-0.80;100.00;99152.91;4424210;32;20077;-69
2022/12/29 06:22:52;;;;;;;23.38;11.55;;;;;;;-0.79;100.00;99154.59;4438993;32;20161;-69
2022/12/29 06:25:19;;;;;;;25.45;10.70;;;;;;;-0.81;100.00;99155.53;4439237;32;20109;-69
2022/12/29 06:27:46;;;;;;;24.85;10.98;;;;;;;-0.83;100.00;99160.72;4439444;32;20120;-69
2022/12/29 06:30:14;;;;;;;23.55;10.57;;;;;;;-0.87;100.00;99158.31;4439117;32;20173;-69
2022/12/29 06:32:43;;;;;;;19.85;9.63;;;;;;;-0.97;100.00;99160.38;4439334;32;20119;-69
2022/12/29 06:35:10;;;;;;;24.12;11.18;;;;;;;-0.98;100.00;99156.97;4439333;32;20093;-69
2022/12/29 06:37:37;;;;;;;27.52;12.13;;;;;;;-0.93;100.00;99169.66;4439257;32;20501;-69
2022/12/29 06:40:06;;;;;;;27.77;11.75;;;;;;;-1.01;100.00;99163.97;4439119;32;20119;-69
2022/12/29 06:42:34;;;;;;;23.98;11.57;;;;;;;-1.00;100.00;99168.19;4439328;32;20461;-69
2022/12/29 06:45:03;;;;;;;26.00;11.27;;;;;;;-0.99;100.00;99163.00;4438745;32;20135;-69
2022/12/29 06:47:30;;;;;;;27.92;12.35;;;;;;;-0.98;100.00;99177.53;4438903;32;20097;-69
2022/12/29 06:49:57;;;;;;;26.12;12.90;;;;;;;-0.97;100.00;99178.37;4439019;32;20110;-69
2022/12/29 06:52:24;;;;;;;21.40;11.15;;;;;;;-1.07;100.00;99176.13;4438194;32;20089;-69
2022/12/29 06:54:52;;;;;;;30.73;10.65;;;;;;;-0.99;100.00;99188.72;4438788;32;20105;-69
2022/12/29 06:57:19;;;;;;;24.90;11.15;;;;;;;-0.90;100.00;99175.53;4439213;32;20511;-69
2022/12/29 06:59:46;;;;;;;26.98;12.05;;;;;;;-0.90;100.00;99198.66;4439069;32;20136;-69
2022/12/29 07:02:14;;;;;;;26.30;11.45;;;;;;;-0.94;100.00;99185.97;4439129;32;20207;-69
2022/12/29 07:04:42;;;;;;;26.55;11.70;;;;;;;-0.92;100.00;99189.34;4439142;32;20117;-69
2022/12/29 07:07:09;;;;;;;27.27;11.80;;;;;;;-0.86;100.00;99198.56;4439018;32;20081;-69
2022/12/29 07:09:36;;;;;;;30.62;12.63;;;;;;;-0.78;100.00;99196.56;4430981;32;20460;-70
2022/12/29 07:12:03;;;;;;;27.60;12.13;;;;;;;-0.73;100.00;99199.81;4424069;32;20107;-70
2022/12/29 07:14:30;;;;;;;29.77;12.02;;;;;;;-0.60;100.00;99193.31;4423390;32;20152;-69
2022/12/29 07:17:06;;;;;;;30.35;13.25;;;;;;;-0.51;100.00;99193.91;4423351;32;20153;-69
2022/12/29 07:19:33;;;;;;;28.70;13.52;;;;;;;-0.41;100.00;99201.22;4423510;32;20149;-68
2022/12/29 07:22:00;;;;;;;29.35;13.05;;;;;;;-0.29;100.00;99205.03;4433909;32;20093;-69
2022/12/29 07:24:29;;;;;;;27.50;13.02;;;;;;;-0.30;100.00;99194.81;4438759;32;20158;-68
2022/12/29 07:26:56;;;;;;;30.33;13.45;;;;;;;-0.32;100.00;99194.84;4438968;32;20158;-68
2022/12/29 07:29:24;;;;;;;31.02;13.85;;;;;;;-0.22;100.00;99191.03;4438721;32;20132;-69
2022/12/29 07:31:51;;;;;;;31.08;13.07;;;;;;;-0.12;100.00;99188.97;4438977;32;20177;-69
2022/12/29 07:34:18;;;;;;;29.95;13.57;;;;;;;-0.03;100.00;99187.75;4438677;32;20131;-68
2022/12/29 07:36:45;;;;;;;30.77;12.68;;;;;;;0.12;100.00;99192.31;4438813;32;20105;-68
2022/12/29 07:39:12;;;;;;;32.35;14.20;;;;;;;0.15;100.00;99192.19;4438591;32;20093;-69
2022/12/29 07:41:40;;;;;;;35.45;15.10;;;;;;;0.24;100.00;99208.19;4438765;32;20098;-68
2022/12/29 07:44:08;;;;;;;32.10;13.20;;;;;;;0.08;100.00;99200.22;4438659;32;20124;-69
2022/12/29 07:46:36;;;;;;;28.40;13.98;;;;;;;0.17;100.00;99192.13;4438548;32;20149;-69
2022/12/29 07:49:23;;;;;;;31.37;13.25;;;;;;;0.24;100.00;99195.28;4438548;32;20156;-69
2022/12/29 07:51:50;;;;;;;26.40;11.70;;;;;;;0.49;100.00;99198.56;4438510;32;20146;-68
2022/12/29 07:54:22;;;;;;;26.73;11.55;;;;;;;0.10;100.00;99181.22;4438579;32;20097;-68
2022/12/29 07:56:50;;;;;;;30.55;14.15;;;;;;;0.33;100.00;99193.19;4438799;32;20132;-69
2022/12/29 07:59:17;;;;;;;30.85;13.95;;;;;;;0.39;100.00;99197.25;4431998;32;211412;-68
2022/12/29 08:01:44;;;;;;;34.38;14.55;;;;;;;0.45;100.00;99194.41;4438580;32;20428;-69
2022/12/29 08:04:11;;;;;;;25.70;12.45;;;;;;;0.56;100.00;99208.59;4438419;32;20097;-69
2022/12/29 08:06:39;;;;;;;29.05;12.13;;;;;;;0.66;100.00;99199.59;4438699;32;20093;-68
2022/12/29 08:09:06;;;;;;;25.48;12.37;;;;;;;0.59;100.00;99199.03;4433642;32;20213;-69
2022/12/29 08:11:45;;;;;;;32.65;13.32;;;;;;;0.59;100.00;99198.16;4423059;32;20149;-69
2022/12/29 08:14:13;;;;;;;28.35;12.73;;;;;;;0.58;100.00;99196.50;4423088;32;20149;-68
2022/12/29 08:16:40;;;;;;;28.83;14.07;;;;;;;0.44;100.00;99184.16;4422923;32;20171;-69
2022/12/29 08:19:07;;;;;;;33.47;13.88;;;;;;;0.57;100.00;99182.75;4422934;32;20157;-69
2022/12/29 08:21:34;;;;;;;29.87;13.77;;;;;;;0.70;100.00;99193.41;4416311;32;20428;-69
2022/12/29 08:24:01;;;;;;;30.95;14.20;;;;;;;0.76;100.00;99182.84;4438494;32;20438;-69
2022/12/29 08:26:28;;;;;;;32.42;14.43;;;;;;;0.67;100.00;99185.81;4438097;32;20089;-69
2022/12/29 08:28:56;;;;;;;37.92;15.75;;;;;;;0.73;100.00;99189.84;4438450;32;20529;-69
2022/12/29 08:31:23;;;;;;;34.13;14.35;;;;;;;0.74;100.00;99186.37;4438077;32;20124;-69
2022/12/29 08:33:51;;;;;;;35.90;15.85;;;;;;;0.56;100.00;99181.12;4438330;32;20141;-69
2022/12/29 08:36:18;;;;;;;32.58;13.88;;;;;;;0.60;100.00;99181.81;4438167;32;20101;-69
2022/12/29 08:38:45;;;;;;;33.92;15.68;;;;;;;0.55;100.00;99176.84;4438156;32;20418;-69
2022/12/29 08:41:13;;;;;;;34.03;15.25;;;;;;;0.56;100.00;99180.25;4438453;32;20519;-69
2022/12/29 08:43:40;;;;;;;35.22;16.02;;;;;;;0.61;100.00;99179.16;4438287;32;20160;-69
2022/12/29 08:46:07;;;;;;;36.47;17.35;;;;;;;0.60;100.00;99177.47;4438110;32;20117;-69
2022/12/29 08:48:34;;;;;;;35.58;15.48;;;;;;;0.53;100.00;99178.66;4438398;32;20135;-69
2022/12/29 08:51:01;;;;;;;43.65;15.68;;;;;;;0.43;100.00;99182.50;4437968;32;20486;-69
2022/12/29 08:53:28;;;;;;;37.53;16.30;;;;;;;0.46;100.00;99178.06;4438136;32;20101;-69
2022/12/29 08:55:58;;;;;;;37.17;17.17;;;;;;;0.51;100.00;99186.44;4438302;32;20604;-69
2022/12/29 08:58:32;;;;;;;35.08;16.55;;;;;;;0.75;100.00;99180.34;4438531;32;20106;-70
2022/12/29 09:01:00;;;;;;;36.17;16.20;;;;;;;0.96;100.00;99176.00;4438451;32;20101;-70
2022/12/29 09:03:27;;;;;;;41.13;16.50;;;;;;;1.12;100.00;99177.00;4424248;32;20478;-70
2022/12/29 09:06:16;;;;;;;38.85;15.18;;;;;;;1.25;100.00;99166.97;4438271;32;20077;-70
2022/12/29 09:08:44;;;;;;;35.95;16.08;;;;;;;1.32;100.00;99175.28;4435802;32;20110;-70
2022/12/29 09:11:20;;;;;;;38.90;15.90;;;;;;;1.32;100.00;99162.37;4423087;32;20102;-70
2022/12/29 09:13:47;;;;;;;28.48;15.52;;;;;;;1.47;100.00;99164.28;4422544;32;20360;-70
2022/12/29 09:16:15;;;;;;;36.03;15.52;;;;;;;1.19;100.00;99159.50;4421922;32;20519;-69
2022/12/29 09:18:43;;;;;;;35.63;14.87;;;;;;;1.09;100.00;99164.25;4422552;32;20116;-69
2022/12/29 09:21:11;;;;;;;48.65;17.58;;;;;;;1.29;100.00;99157.31;4427145;32;20144;-69
2022/12/29 09:23:38;;;;;;;40.92;17.23;;;;;;;1.33;100.00;99153.72;4437654;32;20123;-70
2022/12/29 09:26:07;;;;;;;31.05;15.50;;;;;;;1.13;100.00;99163.19;4437538;32;20102;-69
2022/12/29 09:28:34;;;;;;;31.37;15.10;;;;;;;1.18;100.00;99150.94;4437690;32;20085;-70
2022/12/29 09:31:02;;;;;;;39.13;15.95;;;;;;;1.29;100.00;99153.03;4437500;32;20093;-69
2022/12/29 09:33:29;;;;;;;42.20;17.33;;;;;;;1.28;100.00;99147.94;4437764;32;20098;-69
2022/12/29 09:35:57;;;;;;;33.78;16.05;;;;;;;1.27;100.00;99143.66;4437494;32;20162;-69
2022/12/29 09:38:26;;;;;;;35.70;16.30;;;;;;;1.45;100.00;99139.41;4437559;32;20113;-70
2022/12/29 09:41:06;;;;;;;37.17;15.10;;;;;;;1.72;100.00;99137.31;4437502;32;20102;-70
2022/12/29 09:43:36;;;;;;;29.70;14.95;;;;;;;1.77;100.00;99128.44;4423616;32;20115;-70
2022/12/29 09:46:09;;;;;;;33.30;15.48;;;;;;;1.94;100.00;99127.62;4437419;32;20607;-71
2022/12/29 09:48:41;;;;;;;31.47;14.67;;;;;;;1.87;100.00;99126.22;4437299;32;20089;-71
2022/12/29 09:51:15;;;;;;;30.20;14.18;;;;;;;1.59;100.00;99130.13;4437360;32;20510;-71
2022/12/29 09:53:45;;;;;;;36.08;15.80;;;;;;;1.75;100.00;99129.41;4437558;32;20089;-71
2022/12/29 09:56:21;;;;;;;32.30;14.23;;;;;;;1.86;100.00;99111.66;4423557;32;20106;-70
2022/12/29 09:59:16;;;;;;;38.10;16.92;;;;;;;1.73;100.00;99126.06;4437273;32;20462;-70
2022/12/29 10:01:55;;;;;;;25.50;12.25;;;;;;;1.77;100.00;99125.00;4421466;32;20400;-70
2022/12/29 10:04:22;;;;;;;42.85;15.20;;;;;;;1.77;100.00;99117.25;4423620;32;20090;-71
2022/12/29 10:07:08;;;;;;;38.25;15.85;;;;;;;1.70;100.00;99115.88;4437099;32;20097;-70
2022/12/29 10:10:10;;;;;;;32.80;15.80;;;;;;;1.85;100.00;99114.31;4415652;32;20169;-70
2022/12/29 10:12:47;;;;;;;38.53;17.70;;;;;;;1.90;100.00;99118.34;4421787;32;20147;-70
2022/12/29 10:16:10;;;;;;;31.83;14.35;;;;;;;1.99;100.00;99116.22;4421945;32;20633;-70
2022/12/29 10:19:02;;;;;;;31.20;15.13;;;;;;;2.10;100.00;99121.72;4329030;33;20519;-70
2022/12/29 10:21:41;;;;;;;34.42;16.12;;;;;;;2.16;100.00;99110.25;4322352;33;20158;-70
2022/12/29 10:24:11;;;;;;;37.08;16.40;;;;;;;2.10;100.00;99108.78;4314655;33;20311;-70
2022/12/29 10:26:41;;;;;;;38.42;16.55;;;;;;;2.02;100.00;99101.41;4315849;33;20406;-70
2022/12/29 10:29:19;;;;;;;38.15;16.37;;;;;;;2.39;100.00;99099.59;4317206;33;20092;-70
2022/12/29 10:31:58;;;;;;;41.40;16.90;;;;;;;2.61;100.00;99096.75;4316779;33;20108;-71
2022/12/29 10:34:27;;;;;;;33.83;15.80;;;;;;;2.76;100.00;99092.53;4317008;33;20130;-71
2022/12/29 10:37:03;;;;;;;36.22;16.85;;;;;;;2.88;100.00;99085.87;4316513;33;20135;-71
2022/12/29 10:39:34;;;;;;;40.05;17.05;;;;;;;2.77;100.00;99094.22;4305087;33;20187;-71
2022/12/29 10:42:08;;;;;;;39.95;18.17;;;;;;;2.55;100.00;99091.88;4304880;33;20126;-71
2022/12/29 10:44:35;;;;;;;33.80;15.85;;;;;;;2.51;100.00;99090.34;4316705;33;20154;-71
2022/12/29 10:47:05;;;;;;;38.13;18.65;;;;;;;2.72;100.00;99093.59;4316805;33;20206;-71
2022/12/29 10:49:36;;;;;;;28.80;16.10;;;;;;;2.72;100.00;99079.84;4316839;33;20183;-71
2022/12/29 10:52:04;;;;;;;36.08;17.77;;;;;;;2.83;100.00;99085.28;4304455;33;20100;-70
2022/12/29 10:54:36;;;;;;;34.28;14.57;;;;;;;2.78;100.00;99089.88;4329456;32;20123;-71
2022/12/29 10:57:09;;;;;;;33.90;15.63;;;;;;;2.78;100.00;99085.50;4394652;32;20121;-71
2022/12/29 10:59:37;;;;;;;35.60;16.33;;;;;;;2.95;100.00;99076.03;4394683;32;20109;-71
2022/12/29 11:02:04;;;;;;;38.50;16.48;;;;;;;3.04;100.00;99077.31;4408075;32;20090;-71
2022/12/29 11:04:43;;;;;;;36.38;17.10;;;;;;;3.02;100.00;99070.44;4408675;32;20090;-71
2022/12/29 11:07:12;;;;;;;35.92;16.40;;;;;;;3.08;100.00;99073.66;4408101;32;20481;-71
2022/12/29 11:09:44;;;;;;;39.83;17.15;;;;;;;2.91;100.00;99074.56;4417073;32;20101;-70
2022/12/29 11:12:26;;;;;;;44.50;17.80;;;;;;;2.97;100.00;99080.22;4423462;32;20102;-71
2022/12/29 11:15:05;;;;;;;34.28;15.73;;;;;;;3.07;100.00;99079.72;4423705;32;20443;-71
2022/12/29 11:17:47;;;;;;;34.60;16.20;;;;;;;3.14;100.00;99076.72;4423329;32;20491;-71
2022/12/29 11:20:37;;;;;;;41.97;17.45;;;;;;;3.21;100.00;99074.66;4423615;32;20090;-71
2022/12/29 11:23:28;;;;;;;38.22;17.65;;;;;;;3.33;100.00;99071.41;4408012;32;20110;-71
2022/12/29 11:26:14;;;;;;;35.08;17.10;;;;;;;3.22;100.00;99068.53;4408207;32;20078;-71
2022/12/29 11:28:47;;;;;;;29.20;15.30;;;;;;;3.09;100.00;99063.22;4408258;32;20113;-71
2022/12/29 11:31:18;;;;;;;35.05;18.37;;;;;;;3.30;100.00;99056.03;4407261;32;20105;-71
2022/12/29 11:33:45;;;;;;;38.10;17.83;;;;;;;3.34;100.00;99054.09;4407904;32;20508;-71
2022/12/29 11:36:23;;;;;;;37.80;17.60;;;;;;;3.49;100.00;99055.00;4408166;32;20119;-71
2022/12/29 11:38:52;;;;;;;38.05;17.87;;;;;;;3.58;100.00;99051.91;4407650;32;20093;-71
2022/12/29 11:41:25;;;;;;;41.85;17.77;;;;;;;3.69;100.00;99051.28;4406886;32;20597;-71
2022/12/29 11:43:55;;;;;;;39.43;18.53;;;;;;;3.67;100.00;99037.59;4406673;32;20533;-71
2022/12/29 11:46:26;;;;;;;38.85;18.95;;;;;;;3.72;100.00;99025.22;4406789;32;20086;-70
2022/12/29 11:48:58;;;;;;;35.03;17.52;;;;;;;3.81;100.00;99016.91;4407793;32;20126;-71
2022/12/29 11:51:28;;;;;;;38.72;15.82;;;;;;;3.64;100.00;99037.78;4408159;32;20109;-71
2022/12/29 11:54:00;;;;;;;37.78;17.83;;;;;;;3.69;100.00;99046.97;4408035;32;20086;-70
2022/12/29 11:56:45;;;;;;;35.25;18.27;;;;;;;3.74;100.00;99044.12;4408124;32;20100;-70
2022/12/29 11:59:31;;;;;;;39.88;18.33;;;;;;;3.70;100.00;99050.38;4407903;32;20137;-70
2022/12/29 12:01:58;;;;;;;36.15;17.25;;;;;;;3.50;100.00;99048.91;4407984;32;20082;-70
2022/12/29 12:04:30;;;;;;;35.80;16.37;;;;;;;3.50;100.00;99044.56;4406642;32;20119;-70
2022/12/29 12:07:05;;;;;;;41.53;18.98;;;;;;;3.55;100.00;99044.31;4408165;32;20086;-70
2022/12/29 12:09:37;;;;;;;42.67;19.12;;;;;;;3.50;100.00;99041.97;4415166;32;20152;-71
2022/12/29 12:12:05;;;;;;;37.78;17.45;;;;;;;3.70;100.00;99042.63;4409489;32;20521;-70